Aeroporto :
LOGIN :

Iscrizione | Disclaimer

   EN    FR    IT 

 










Sommario :    VFR   VFR Marginale   IFR   IFR Intensivo   IFR Molto Intensivo
Visibilità : 
Base nubi : 
>= 8 km
>= 3000ft
5 / 8 km
1000 / 3000 ft
1500m / 5 km
500 / 1000 ft
800 / 1500m
200 / 500 ft
< 800m
< 200 ft
Simboli :   Temporali  Nebbia  Neve Forte  Precipitazioni Forti  Vento > 20 kt
SIGMETs :   Varie  Temporali  Ghiacco  Turbolenza  Onda orograficha  Ceneri Vulcaniche






- Altitudine del aeroporto : 74 ft
- Codice IATA : LRH


LFBH - La Rochelle Ile de Ré

ULTIMO METAR :
  • 062100Z AUTO 12004KT 7000 FEW041 SCT048 OVC054 12/11 Q1025

METARs OBSOLETI :
  • 062030Z AUTO 12004KT 100V170 7000 DZ BKN039 OVC046 12/11 Q1025
  • 062000Z AUTO 10004KT 7000 -RA FEW006 OVC052 12/11 Q1024
  • 061930Z AUTO 10004KT 9000 ///TCU 13/11 Q1024
  • 061900Z AUTO 10006KT 9999 FEW027 OVC050 13/11 Q1024
  • 061830Z AUTO 10005KT 9999 FEW012 SCT027 OVC052 13/11 Q1024
  • 061800Z AUTO 07006KT 9999 BKN012 OVC049 13/11 Q1023

Previsioni scadute.
ATIS : +33 5 46 00 13 92



MetMap, La meteo Aeronautica in un colpo d'occhio ! - Copyright ORBIFLY Dicembre 2007 - Disclaimer

ORBIFLY MET'MAP TEAM :

Programmazione e sviluppo : Alexandra Zaïnal
Concezione : Baudouin d'Aumeries
Aiuto per la programmazione : Marc-Olivier Méhu
Supporto tecnico e logistico : Manuel Goepfert
Aiuto per la traduzione : Arnaldo La Scala

Contatto : metmap@orbifly.com




FONTI E CREDITI :

   NOAA